createdAt,value
2017-08-15T00:00:33.385Z,56.90
2017-08-15T00:03:00.878Z,56.90
2017-08-15T00:05:29.102Z,57.80
2017-08-15T00:07:56.573Z,57.10
2017-08-15T00:10:24.062Z,57.10
2017-08-15T00:12:51.522Z,57.10
2017-08-15T00:15:18.972Z,57.10
2017-08-15T00:17:46.453Z,57.10
2017-08-15T00:20:14.682Z,57.40
2017-08-15T00:22:42.138Z,57.40
2017-08-15T00:25:09.625Z,57.40
2017-08-15T00:27:37.096Z,57.50
2017-08-15T00:30:05.353Z,58.00
2017-08-15T00:32:32.853Z,57.70
2017-08-15T00:35:00.316Z,57.80
2017-08-15T00:37:27.772Z,57.90
2017-08-15T00:39:55.250Z,58.00
2017-08-15T00:42:22.725Z,58.00
2017-08-15T00:44:50.206Z,58.20
2017-08-15T00:47:17.658Z,58.30
2017-08-15T00:49:45.118Z,58.30
2017-08-15T00:52:12.589Z,58.40
2017-08-15T00:54:40.067Z,58.40
2017-08-15T00:57:07.534Z,58.50
2017-08-15T00:59:34.989Z,58.60
2017-08-15T01:02:02.468Z,58.60
2017-08-15T01:04:29.956Z,58.60
2017-08-15T01:06:57.421Z,58.80
2017-08-15T01:09:24.877Z,58.90
2017-08-15T01:11:52.349Z,59.10
2017-08-15T01:14:19.818Z,59.10
2017-08-15T01:16:47.382Z,59.10
2017-08-15T01:19:14.874Z,59.20
2017-08-15T01:21:42.459Z,59.10
2017-08-15T01:24:09.911Z,59.20
2017-08-15T01:26:37.382Z,59.20
2017-08-15T01:29:04.854Z,59.20
2017-08-15T01:31:32.315Z,59.30
2017-08-15T01:33:59.784Z,59.40
2017-08-15T01:36:27.241Z,59.30
2017-08-15T01:38:54.748Z,59.40
2017-08-15T01:41:22.210Z,59.50
2017-08-15T01:43:49.667Z,59.50
2017-08-15T01:46:17.142Z,59.60
2017-08-15T01:48:44.613Z,59.60
2017-08-15T01:51:12.085Z,59.70
2017-08-15T01:53:39.545Z,59.60
2017-08-15T01:56:07.031Z,59.60
2017-08-15T01:58:35.249Z,59.70
2017-08-15T02:01:02.714Z,59.60
2017-08-15T02:03:30.204Z,59.60
2017-08-15T02:05:57.654Z,59.70
2017-08-15T02:08:25.114Z,59.80
2017-08-15T02:10:52.598Z,59.90
2017-08-15T02:13:21.090Z,59.90
2017-08-15T02:15:48.545Z,59.90
2017-08-15T02:18:16.286Z,60.00
2017-08-15T02:20:43.741Z,60.00
2017-08-15T02:23:11.229Z,60.00
2017-08-15T02:25:38.690Z,60.00
2017-08-15T02:28:06.150Z,60.10
2017-08-15T02:30:33.696Z,60.20
2017-08-15T02:33:01.151Z,60.30
2017-08-15T02:35:29.377Z,60.50
2017-08-15T02:37:56.851Z,60.50
2017-08-15T02:40:24.310Z,60.50
2017-08-15T02:42:51.825Z,60.60
2017-08-15T02:45:19.289Z,60.70
2017-08-15T02:47:46.745Z,60.70
2017-08-15T02:50:14.223Z,60.90
2017-08-15T02:52:41.702Z,61.00
2017-08-15T02:55:09.150Z,61.00
2017-08-15T02:57:36.642Z,61.10
2017-08-15T03:00:04.108Z,61.10
2017-08-15T03:02:31.561Z,61.30
2017-08-15T03:04:59.045Z,61.50
2017-08-15T03:07:26.523Z,61.50
2017-08-15T03:09:53.997Z,61.50
2017-08-15T03:12:21.468Z,61.70
2017-08-15T03:14:48.922Z,61.60
2017-08-15T03:17:16.398Z,61.70
2017-08-15T03:19:43.850Z,61.80
2017-08-15T03:22:11.329Z,61.70
2017-08-15T03:24:38.873Z,61.80
2017-08-15T03:27:06.326Z,61.90
2017-08-15T03:29:33.814Z,61.90
2017-08-15T03:32:01.498Z,61.90
2017-08-15T03:34:28.944Z,61.80
2017-08-15T03:36:56.579Z,61.80
2017-08-15T03:39:24.122Z,61.80
2017-08-15T03:41:51.589Z,61.80
2017-08-15T03:44:19.045Z,61.80
2017-08-15T03:46:46.561Z,61.80
2017-08-15T03:49:14.022Z,61.90
2017-08-15T03:51:41.478Z,61.90
2017-08-15T03:54:08.964Z,62.00
2017-08-15T03:56:36.425Z,61.90
2017-08-15T03:59:03.897Z,61.90
2017-08-15T04:01:31.382Z,62.10
2017-08-15T04:03:58.837Z,62.10
2017-08-15T04:06:26.322Z,62.20
2017-08-15T04:08:53.821Z,63.00
2017-08-15T04:11:21.302Z,62.30
2017-08-15T04:13:48.785Z,62.30
2017-08-15T04:16:16.242Z,62.40
2017-08-15T04:18:43.721Z,62.60
2017-08-15T04:21:11.168Z,62.60
2017-08-15T04:23:38.647Z,62.60
2017-08-15T04:26:06.160Z,62.70
2017-08-15T04:28:34.402Z,62.70
2017-08-15T04:31:01.869Z,62.80
2017-08-15T04:33:29.389Z,62.80
2017-08-15T04:35:56.841Z,63.00
2017-08-15T04:38:24.330Z,63.00
2017-08-15T04:40:51.814Z,63.00
2017-08-15T04:43:19.310Z,63.90
2017-08-15T04:45:46.768Z,63.00
2017-08-15T04:48:14.230Z,63.10
2017-08-15T04:50:41.710Z,63.10
2017-08-15T04:53:09.436Z,63.10
2017-08-15T04:55:36.897Z,63.10
2017-08-15T04:58:04.345Z,63.20
2017-08-15T05:00:31.829Z,63.10
2017-08-15T05:02:59.294Z,63.30
2017-08-15T05:05:26.768Z,63.20
2017-08-15T05:07:54.595Z,63.10
2017-08-15T05:10:22.090Z,63.00
2017-08-15T05:12:49.558Z,63.00
2017-08-15T05:15:17.025Z,62.80
2017-08-15T05:17:44.542Z,62.70
2017-08-15T05:20:11.991Z,62.70
2017-08-15T05:22:39.472Z,62.70
2017-08-15T05:25:06.947Z,62.60
2017-08-15T05:27:34.421Z,62.60
2017-08-15T05:30:01.994Z,62.50
2017-08-15T05:32:29.473Z,62.60
2017-08-15T05:34:56.934Z,62.50
2017-08-15T05:37:24.413Z,62.30
2017-08-15T05:39:51.902Z,62.30
2017-08-15T05:42:19.382Z,62.10
2017-08-15T05:44:46.869Z,62.10
2017-08-15T05:47:14.338Z,61.90
2017-08-15T05:49:41.792Z,61.80
2017-08-15T05:52:09.286Z,61.50
2017-08-15T05:54:36.738Z,61.40
2017-08-15T05:57:04.233Z,61.10
2017-08-15T05:59:31.686Z,61.00
2017-08-15T06:01:59.163Z,60.70
2017-08-15T06:04:26.613Z,60.50
2017-08-15T06:06:54.093Z,60.00
2017-08-15T06:09:21.594Z,59.80
2017-08-15T06:11:49.063Z,59.70
2017-08-15T06:14:16.518Z,59.50
2017-08-15T06:16:44.005Z,59.40
2017-08-15T06:19:12.220Z,59.50
2017-08-15T06:21:39.701Z,59.50
2017-08-15T06:24:07.185Z,59.40
2017-08-15T06:26:34.645Z,59.30
2017-08-15T06:29:02.217Z,59.10
2017-08-15T06:31:29.697Z,58.90
2017-08-15T06:33:57.172Z,58.70
2017-08-15T06:36:24.658Z,58.50
2017-08-15T06:38:52.119Z,58.00
2017-08-15T06:41:19.581Z,57.80
2017-08-15T06:43:47.070Z,57.50
2017-08-15T06:46:15.289Z,57.10
2017-08-15T06:48:42.790Z,57.10
2017-08-15T06:51:10.273Z,57.00
2017-08-15T06:53:37.745Z,57.00
2017-08-15T06:56:05.225Z,57.00
2017-08-15T06:58:32.742Z,57.00
2017-08-15T07:01:00.204Z,57.00
2017-08-15T07:03:27.676Z,57.00
2017-08-15T07:05:55.152Z,57.20
2017-08-15T07:08:22.615Z,57.10
2017-08-15T07:10:50.090Z,57.20
2017-08-15T07:13:17.550Z,57.30
2017-08-15T07:15:45.037Z,57.30
2017-08-15T07:18:13.256Z,57.40
2017-08-15T07:20:40.755Z,57.10
2017-08-15T07:23:08.252Z,57.10
2017-08-15T07:25:35.710Z,57.00
2017-08-15T07:28:03.200Z,57.00
2017-08-15T07:30:30.702Z,56.90
2017-08-15T07:32:58.158Z,56.90
2017-08-15T07:35:25.628Z,56.80
2017-08-15T07:37:53.156Z,56.80
2017-08-15T07:40:20.617Z,56.80
2017-08-15T07:42:48.088Z,56.80
2017-08-15T07:45:15.583Z,56.80
2017-08-15T07:47:43.043Z,56.80
2017-08-15T07:50:10.550Z,56.90
2017-08-15T07:52:38.052Z,57.10
2017-08-15T07:55:05.515Z,57.20
2017-08-15T07:57:32.977Z,57.40
2017-08-15T08:00:00.459Z,57.40
2017-08-15T08:02:27.948Z,57.40
2017-08-15T08:04:55.429Z,57.10
2017-08-15T08:07:22.892Z,57.20
2017-08-15T08:09:51.150Z,57.00
2017-08-15T08:12:18.654Z,57.00
2017-08-15T08:14:46.113Z,57.20
2017-08-15T08:17:13.564Z,57.00
2017-08-15T08:19:41.107Z,56.80
2017-08-15T08:22:08.565Z,56.70
2017-08-15T08:24:36.047Z,56.70
2017-08-15T08:27:03.509Z,56.60
2017-08-15T08:29:30.997Z,56.60
2017-08-15T08:31:58.469Z,56.50
2017-08-15T08:34:25.930Z,56.10
2017-08-15T08:36:53.414Z,55.80
2017-08-15T08:39:21.633Z,55.30
2017-08-15T08:41:49.133Z,55.30
2017-08-15T08:44:16.590Z,55.20
2017-08-15T08:46:44.054Z,55.00
2017-08-15T08:49:11.638Z,55.00
2017-08-15T08:51:39.098Z,55.10
2017-08-15T08:54:06.569Z,55.10
2017-08-15T08:56:34.033Z,55.00
2017-08-15T08:59:01.507Z,55.00
2017-08-15T09:01:29.005Z,55.00
2017-08-15T09:03:56.447Z,55.00
2017-08-15T09:06:24.681Z,55.00
2017-08-15T09:08:52.173Z,54.90
2017-08-15T09:11:19.621Z,55.00
2017-08-15T09:13:47.065Z,55.20
2017-08-15T09:16:14.533Z,55.20
2017-08-15T09:18:42.003Z,55.20
2017-08-15T09:21:09.580Z,55.30
2017-08-15T09:23:37.035Z,55.40
2017-08-15T09:26:04.531Z,55.60
2017-08-15T09:28:31.990Z,55.70
2017-08-15T09:30:59.458Z,55.90
2017-08-15T09:33:26.951Z,56.20
2017-08-15T09:35:54.436Z,56.40
2017-08-15T09:38:21.898Z,56.90
2017-08-15T09:40:50.126Z,57.70
2017-08-15T09:43:17.625Z,57.70
2017-08-15T09:45:45.106Z,58.00
2017-08-15T09:48:12.646Z,58.30
2017-08-15T09:50:40.126Z,58.50
2017-08-15T09:53:07.609Z,58.70
2017-08-15T09:55:35.094Z,58.80
2017-08-15T09:58:08.288Z,58.90
2017-08-15T10:00:35.797Z,59.00
2017-08-15T10:03:03.236Z,58.70
2017-08-15T10:05:31.454Z,58.30
2017-08-15T10:07:58.968Z,58.30
2017-08-15T10:10:26.513Z,58.30
2017-08-15T10:12:53.967Z,58.30
2017-08-15T10:15:21.442Z,58.40
2017-08-15T10:17:48.934Z,58.50
2017-08-15T10:20:16.421Z,58.40
2017-08-15T10:22:43.881Z,58.30
2017-08-15T10:25:11.449Z,58.40
2017-08-15T10:27:38.952Z,58.60
2017-08-15T10:30:07.177Z,58.50
2017-08-15T10:32:34.642Z,58.50
2017-08-15T10:35:02.123Z,58.30
2017-08-15T10:37:29.578Z,57.90
2017-08-15T10:39:57.158Z,57.50
2017-08-15T10:42:24.617Z,56.90
2017-08-15T10:44:52.093Z,56.50
2017-08-15T10:47:19.582Z,56.20
2017-08-15T10:49:47.051Z,56.00
2017-08-15T10:52:14.566Z,55.20
2017-08-15T10:54:42.026Z,54.70
2017-08-15T10:57:09.605Z,54.70
2017-08-15T10:59:37.089Z,54.50
2017-08-15T11:02:04.574Z,54.50
2017-08-15T11:04:32.027Z,54.10
2017-08-15T11:06:59.482Z,54.10
2017-08-15T11:09:27.058Z,53.90
2017-08-15T11:11:54.521Z,54.00
2017-08-15T11:14:21.998Z,53.90
2017-08-15T11:16:49.450Z,53.80
2017-08-15T11:19:16.925Z,53.60
2017-08-15T11:21:44.387Z,54.10
2017-08-15T11:24:11.905Z,53.20
2017-08-15T11:26:39.358Z,52.40
2017-08-15T11:29:06.802Z,52.40
2017-08-15T11:31:34.294Z,52.30
2017-08-15T11:34:01.747Z,52.00
2017-08-15T11:36:29.197Z,51.60
2017-08-15T11:38:56.678Z,51.20
2017-08-15T11:41:24.137Z,50.70
2017-08-15T11:43:51.622Z,50.00
2017-08-15T11:46:19.078Z,49.90
2017-08-15T11:48:46.574Z,49.50
2017-08-15T11:51:14.034Z,49.50
2017-08-15T11:53:41.497Z,49.30
2017-08-15T11:56:08.977Z,49.50
2017-08-15T11:58:36.445Z,49.90
2017-08-15T12:01:03.910Z,49.80
2017-08-15T12:03:31.362Z,48.90
2017-08-15T12:05:58.833Z,48.70
2017-08-15T12:08:26.290Z,47.90
2017-08-15T12:10:53.749Z,47.70
2017-08-15T12:13:21.227Z,47.60
2017-08-15T12:15:48.701Z,47.60
2017-08-15T12:18:16.146Z,46.90
2017-08-15T12:20:43.598Z,46.60
2017-08-15T12:23:11.078Z,46.30
2017-08-15T12:25:38.545Z,45.90
2017-08-15T12:28:06.022Z,45.40
2017-08-15T12:30:33.494Z,45.20
2017-08-15T12:33:00.941Z,45.00
2017-08-15T12:35:29.170Z,44.60
2017-08-15T12:37:56.622Z,44.60
2017-08-15T12:40:24.093Z,44.40
2017-08-15T12:42:51.550Z,44.40
2017-08-15T12:45:19.033Z,44.70
2017-08-15T12:47:46.518Z,45.00
2017-08-15T12:50:14.725Z,44.50
2017-08-15T12:52:42.206Z,44.50
2017-08-15T12:55:09.666Z,44.60
2017-08-15T12:57:37.136Z,44.50
2017-08-15T13:00:04.687Z,44.50
2017-08-15T13:02:32.157Z,44.20
2017-08-15T13:04:59.605Z,43.80
2017-08-15T13:07:27.077Z,43.10
2017-08-15T13:09:54.582Z,43.00
2017-08-15T13:12:22.074Z,43.00
2017-08-15T13:14:49.517Z,43.00
2017-08-15T13:17:17.002Z,43.10
2017-08-15T13:19:44.490Z,43.20
2017-08-15T13:22:11.944Z,43.40
2017-08-15T13:24:40.201Z,43.10
2017-08-15T13:27:07.661Z,43.10
2017-08-15T13:29:35.193Z,43.10
2017-08-15T13:32:02.679Z,43.30
2017-08-15T13:34:30.141Z,43.40
2017-08-15T13:36:57.627Z,43.70
2017-08-15T13:39:25.091Z,43.90
2017-08-15T13:41:52.596Z,44.20
2017-08-15T13:44:20.054Z,44.50
2017-08-15T13:46:47.522Z,44.60
2017-08-15T13:49:14.997Z,44.90
2017-08-15T13:51:43.216Z,44.80
2017-08-15T13:54:10.678Z,44.80
2017-08-15T13:56:38.362Z,44.90
2017-08-15T13:59:05.833Z,45.20
2017-08-15T14:01:33.286Z,45.40
2017-08-15T14:04:00.750Z,45.80
2017-08-15T14:06:28.214Z,46.30
2017-08-15T14:08:55.700Z,46.30
2017-08-15T14:11:23.167Z,46.60
2017-08-15T14:13:50.629Z,46.80
2017-08-15T14:16:18.117Z,46.90
2017-08-15T14:18:45.558Z,46.70
2017-08-15T14:21:13.009Z,46.60
2017-08-15T14:23:40.507Z,46.60
2017-08-15T14:26:07.996Z,46.70
2017-08-15T14:28:35.461Z,46.80
2017-08-15T14:31:02.926Z,47.00
2017-08-15T14:33:30.407Z,47.30
2017-08-15T14:35:57.874Z,47.50
2017-08-15T14:38:25.339Z,47.60
2017-08-15T14:40:52.826Z,47.70
2017-08-15T14:43:20.283Z,47.90
2017-08-15T14:45:47.733Z,48.10
2017-08-15T14:48:15.212Z,48.40
2017-08-15T14:50:43.470Z,49.10
2017-08-15T14:53:10.925Z,49.00
2017-08-15T14:55:38.386Z,49.30
2017-08-15T14:58:05.870Z,49.50
2017-08-15T15:00:34.098Z,50.30
2017-08-15T15:03:01.565Z,50.20
2017-08-15T15:05:29.046Z,50.60
2017-08-15T15:07:56.522Z,50.80
2017-08-15T15:10:24.735Z,51.20
2017-08-15T15:12:52.190Z,51.20
2017-08-15T15:15:19.672Z,51.50
2017-08-15T15:17:47.117Z,51.70
2017-08-15T15:20:14.567Z,52.00
2017-08-15T15:22:42.089Z,52.20
2017-08-15T15:25:10.305Z,52.50
2017-08-15T15:27:37.754Z,52.40
2017-08-15T15:30:05.294Z,52.60
2017-08-15T15:32:32.801Z,53.00
2017-08-15T15:35:00.259Z,53.40
2017-08-15T15:37:27.738Z,53.70
2017-08-15T15:39:55.198Z,53.80
2017-08-15T15:42:22.646Z,54.30
2017-08-15T15:44:50.145Z,54.70
2017-08-15T15:47:22.411Z,55.30
2017-08-15T15:49:50.153Z,55.60
2017-08-15T15:52:17.616Z,56.10
2017-08-15T15:54:45.101Z,56.30
2017-08-15T15:57:12.552Z,56.60
2017-08-15T15:59:40.023Z,56.80
2017-08-15T16:02:07.496Z,57.10
2017-08-15T16:04:34.953Z,57.40
2017-08-15T16:07:02.416Z,57.90
2017-08-15T16:09:29.985Z,57.90
2017-08-15T16:11:57.440Z,58.00
2017-08-15T16:14:24.905Z,57.90
2017-08-15T16:16:52.381Z,57.90
2017-08-15T16:19:19.950Z,58.00
2017-08-15T16:21:47.392Z,58.10
2017-08-15T16:24:14.880Z,58.20
2017-08-15T16:26:42.333Z,58.30
2017-08-15T16:29:09.838Z,58.60
2017-08-15T16:31:37.281Z,58.30
2017-08-15T16:34:04.777Z,58.30
2017-08-15T16:36:32.277Z,58.50
2017-08-15T16:38:59.765Z,58.90
2017-08-15T16:41:27.287Z,59.10
2017-08-15T16:43:54.810Z,59.50
2017-08-15T16:46:22.301Z,59.90
2017-08-15T16:48:49.857Z,59.90
2017-08-15T16:51:17.406Z,60.20
2017-08-15T16:53:44.877Z,60.40
2017-08-15T16:56:13.113Z,60.10
2017-08-15T16:58:40.646Z,60.10
2017-08-15T17:01:08.106Z,59.90
2017-08-15T17:03:35.552Z,59.40
2017-08-15T17:06:03.038Z,58.80
2017-08-15T17:08:30.505Z,58.80
2017-08-15T17:10:57.957Z,58.90
2017-08-15T17:13:25.950Z,58.60
2017-08-15T17:15:54.196Z,58.60
2017-08-15T17:18:29.065Z,58.10
2017-08-15T17:20:58.508Z,58.30
2017-08-15T17:23:26.285Z,58.30
2017-08-15T17:25:54.506Z,58.50
2017-08-15T17:28:22.340Z,58.50
2017-08-15T17:30:49.837Z,58.90
2017-08-15T17:33:17.481Z,58.40
2017-08-15T17:35:45.501Z,58.50
2017-08-15T17:38:13.781Z,58.80
2017-08-15T17:40:41.230Z,58.80
2017-08-15T17:43:09.485Z,59.10
2017-08-15T17:45:37.073Z,59.10
2017-08-15T17:48:05.368Z,59.20
2017-08-15T17:50:32.891Z,59.00
2017-08-15T17:53:01.557Z,59.10
2017-08-15T17:55:29.880Z,59.30
2017-08-15T17:57:58.109Z,59.60
2017-08-15T18:00:25.598Z,59.60
2017-08-15T18:02:53.101Z,59.70
2017-08-15T18:05:20.625Z,59.80
2017-08-15T18:07:48.151Z,59.60
2017-08-15T18:10:15.629Z,59.60
2017-08-15T18:12:43.156Z,59.70
2017-08-15T18:15:10.676Z,59.50
2017-08-15T18:17:38.207Z,59.60
2017-08-15T18:20:06.467Z,60.30
2017-08-15T18:22:34.012Z,59.70
2017-08-15T18:25:01.502Z,59.80
2017-08-15T18:27:29.863Z,59.50
2017-08-15T18:29:57.764Z,59.60
2017-08-15T18:32:25.697Z,59.60
2017-08-15T18:34:53.392Z,59.50
2017-08-15T18:37:21.468Z,59.50
2017-08-15T18:39:49.020Z,59.60
2017-08-15T18:42:16.566Z,59.80
2017-08-15T18:44:44.085Z,59.90
2017-08-15T18:47:11.619Z,59.70
2017-08-15T18:49:39.129Z,59.80
2017-08-15T18:52:06.855Z,60.00
2017-08-15T18:54:34.317Z,59.80
2017-08-15T18:57:03.520Z,59.80
2017-08-15T18:59:31.171Z,59.90
2017-08-15T19:01:58.675Z,59.80
2017-08-15T19:04:26.366Z,59.90
2017-08-15T19:06:53.870Z,59.90
2017-08-15T19:09:21.584Z,60.00
2017-08-15T19:11:49.230Z,60.10
2017-08-15T19:14:18.844Z,60.10
2017-08-15T19:16:48.325Z,59.80
2017-08-15T19:19:16.141Z,60.10
2017-08-15T19:21:43.675Z,60.40
2017-08-15T19:24:23.359Z,60.70
2017-08-15T19:26:51.005Z,60.90
2017-08-15T19:29:18.635Z,60.70
2017-08-15T19:31:46.325Z,60.70
2017-08-15T19:34:14.069Z,60.60
2017-08-15T19:36:41.595Z,60.70
2017-08-15T19:39:09.284Z,60.70
2017-08-15T19:41:36.967Z,61.00
2017-08-15T19:44:04.633Z,62.10
2017-08-15T19:46:32.883Z,61.40
2017-08-15T19:49:00.397Z,61.30
2017-08-15T19:51:27.965Z,61.20
2017-08-15T19:53:55.681Z,61.30
2017-08-15T19:56:23.161Z,61.30
2017-08-15T19:58:51.378Z,61.30
2017-08-15T20:01:18.883Z,61.30
2017-08-15T20:03:46.379Z,61.20
2017-08-15T20:06:13.871Z,61.00
2017-08-15T20:08:41.370Z,61.30
2017-08-15T20:11:09.659Z,61.40
2017-08-15T20:13:37.107Z,61.50
2017-08-15T20:16:04.561Z,61.70
2017-08-15T20:18:32.813Z,61.30
2017-08-15T20:21:00.314Z,61.30
2017-08-15T20:23:28.543Z,61.50
2017-08-15T20:25:56.010Z,61.50
2017-08-15T20:28:23.474Z,61.60
2017-08-15T20:30:50.950Z,61.80
2017-08-15T20:33:18.410Z,61.90
2017-08-15T20:35:45.885Z,61.80
2017-08-15T20:38:13.346Z,61.90
2017-08-15T20:40:40.842Z,62.00
2017-08-15T20:43:08.348Z,62.10
2017-08-15T20:45:36.566Z,63.20
2017-08-15T20:48:04.021Z,62.30
2017-08-15T20:50:31.498Z,62.50
2017-08-15T20:52:58.958Z,62.60
2017-08-15T20:55:26.433Z,62.80
2017-08-15T20:57:53.886Z,63.10
2017-08-15T21:00:21.468Z,63.30
2017-08-15T21:02:48.972Z,63.60
2017-08-15T21:05:16.500Z,63.80
2017-08-15T21:07:43.968Z,64.00
2017-08-15T21:10:11.454Z,64.10
2017-08-15T21:12:38.910Z,63.90
2017-08-15T21:15:06.396Z,63.90
2017-08-15T21:17:33.858Z,63.80
2017-08-15T21:20:01.309Z,63.60
2017-08-15T21:22:28.791Z,63.60
2017-08-15T21:24:56.237Z,63.70
2017-08-15T21:27:23.719Z,63.80
2017-08-15T21:29:51.175Z,63.90
2017-08-15T21:32:18.645Z,64.10
2017-08-15T21:34:46.112Z,64.10
2017-08-15T21:37:13.595Z,64.00
2017-08-15T21:39:41.070Z,64.00
2017-08-15T21:42:08.530Z,64.00
2017-08-15T21:44:36.027Z,63.80
2017-08-15T21:47:03.502Z,63.90
2017-08-15T21:49:30.962Z,63.90
2017-08-15T21:51:58.455Z,63.80
2017-08-15T21:54:25.915Z,63.60
2017-08-15T21:56:53.394Z,63.60
2017-08-15T21:59:20.859Z,63.60
2017-08-15T22:01:53.930Z,63.60
2017-08-15T22:04:21.414Z,63.40
2017-08-15T22:06:48.870Z,63.50
2017-08-15T22:09:17.133Z,63.90
2017-08-15T22:11:44.585Z,63.90
2017-08-15T22:14:12.037Z,63.80
2017-08-15T22:16:39.514Z,63.80
2017-08-15T22:19:06.970Z,63.60
2017-08-15T22:21:34.458Z,63.70
2017-08-15T22:24:01.926Z,63.80
2017-08-15T22:26:29.381Z,63.70
2017-08-15T22:28:56.910Z,63.60
2017-08-15T22:31:24.385Z,63.60
2017-08-15T22:33:51.837Z,63.70
2017-08-15T22:36:19.317Z,63.70
2017-08-15T22:38:46.778Z,63.60
2017-08-15T22:41:14.275Z,63.50
2017-08-15T22:43:41.729Z,63.50
2017-08-15T22:46:09.190Z,63.50
2017-08-15T22:48:36.669Z,63.60
2017-08-15T22:51:04.147Z,63.60
2017-08-15T22:53:31.602Z,63.70
2017-08-15T22:55:59.842Z,63.70
2017-08-15T22:58:27.475Z,63.80
2017-08-15T23:00:54.931Z,63.80
2017-08-15T23:03:22.390Z,63.70
2017-08-15T23:05:49.866Z,63.80
2017-08-15T23:08:17.346Z,63.80
2017-08-15T23:10:44.801Z,63.90
2017-08-15T23:13:12.277Z,63.90
2017-08-15T23:15:40.571Z,64.20
2017-08-15T23:18:08.790Z,64.20
2017-08-15T23:20:36.250Z,64.20
2017-08-15T23:23:03.727Z,64.30
2017-08-15T23:25:31.177Z,64.40
2017-08-15T23:27:58.666Z,64.40
2017-08-15T23:30:26.885Z,64.40
2017-08-15T23:32:54.346Z,64.40
2017-08-15T23:35:21.818Z,64.40
2017-08-15T23:37:49.329Z,64.40
2017-08-15T23:40:17.557Z,64.40
2017-08-15T23:42:45.013Z,64.40
2017-08-15T23:45:12.490Z,64.40
2017-08-15T23:47:39.948Z,64.50
2017-08-15T23:50:07.423Z,64.50
2017-08-15T23:52:35.662Z,64.30
2017-08-15T23:55:03.114Z,64.70
2017-08-15T23:57:30.586Z,64.70
2017-08-15T23:59:58.045Z,64.80
